Time;durP1;ratioP1;P1;durP2;ratioP2;P2;SDS_P1;SDS_P2;PMS_P1;PMS_P2;Temp;Humidity;BMP_temperature;BMP_pressure;BME280_temperature;BME280_humidity;BME280_pressure;Samples;Min_cycle;Max_cycle;Signal;HPM_P1;HPM_P2
2021/09/23 00:01:44;;;;;;;18.80;12.85;;;;;;;11.38;94.72;100883.81;5039963;28;20040;-69
2021/09/23 00:04:20;;;;;;;21.40;14.15;;;;;;;11.34;95.16;100884.94;5056536;28;20048;-71
2021/09/23 00:06:48;;;;;;;22.73;13.40;;;;;;;11.24;94.97;100869.38;5039546;28;20041;-71
2021/09/23 00:09:14;;;;;;;18.63;13.48;;;;;;;11.17;95.49;100878.66;5036370;28;20042;-70
2021/09/23 00:11:42;;;;;;;21.50;13.55;;;;;;;11.17;95.75;100873.31;5036780;28;20345;-70
2021/09/23 00:14:09;;;;;;;21.90;13.70;;;;;;;11.14;96.19;100881.50;5037563;28;20049;-70
2021/09/23 00:16:35;;;;;;;22.30;13.05;;;;;;;11.06;96.35;100868.53;5037515;28;20045;-69
2021/09/23 00:19:03;;;;;;;21.80;14.07;;;;;;;11.05;96.12;100863.28;5036579;28;20099;-71
2021/09/23 00:21:30;;;;;;;18.48;13.20;;;;;;;11.03;96.23;100866.03;5037493;28;20048;-71
2021/09/23 00:23:57;;;;;;;21.90;14.80;;;;;;;10.91;96.23;100866.66;5037134;28;20068;-71
2021/09/23 00:26:24;;;;;;;23.60;13.77;;;;;;;10.89;95.81;100868.56;5037164;28;20427;-71
2021/09/23 00:28:50;;;;;;;19.48;12.93;;;;;;;10.79;96.26;100860.16;5036028;28;20045;-71
2021/09/23 00:31:17;;;;;;;19.63;13.38;;;;;;;10.85;96.19;100852.66;5036078;28;20056;-71
2021/09/23 00:33:44;;;;;;;18.88;12.57;;;;;;;10.67;96.62;100854.47;5037760;28;20377;-71
2021/09/23 00:36:11;;;;;;;21.13;14.23;;;;;;;10.68;96.29;100840.19;5055851;28;20045;-70
2021/09/23 00:38:38;;;;;;;19.08;13.23;;;;;;;10.68;96.55;100837.50;5050204;28;20056;-70
2021/09/23 00:41:05;;;;;;;22.75;13.50;;;;;;;10.66;96.94;100826.06;5053281;28;20437;-70
2021/09/23 00:43:32;;;;;;;19.48;13.10;;;;;;;10.61;96.85;100817.41;5036955;28;20433;-70
2021/09/23 00:45:59;;;;;;;18.00;12.80;;;;;;;10.58;96.83;100815.75;5062883;28;20053;-71
2021/09/23 00:48:26;;;;;;;22.85;13.73;;;;;;;10.58;97.04;100812.25;5055634;28;20120;-71
2021/09/23 00:50:53;;;;;;;22.23;13.15;;;;;;;10.54;96.70;100811.53;5056637;28;20055;-71
2021/09/23 00:53:22;;;;;;;19.02;11.85;;;;;;;10.57;96.72;100810.50;5056392;28;20442;-71
2021/09/23 00:55:49;;;;;;;21.25;13.55;;;;;;;10.53;97.09;100814.25;5039027;28;20052;-71
2021/09/23 00:58:20;;;;;;;;;;;;;;;10.54;97.20;100821.31;5072609;28;20060;-71
2021/09/23 01:00:51;;;;;;;17.98;12.30;;;;;;;10.55;97.35;100818.59;5055550;28;19921;-71
2021/09/23 01:03:20;;;;;;;18.90;13.02;;;;;;;10.52;97.74;100812.53;5039460;28;20055;-71
2021/09/23 01:05:52;;;;;;;26.33;13.35;;;;;;;10.53;97.50;100814.25;5056559;28;20055;-70
2021/09/23 01:08:19;;;;;;;18.83;12.88;;;;;;;10.50;97.48;100812.63;5055323;28;20053;-71
2021/09/23 01:10:46;;;;;;;17.38;11.70;;;;;;;10.58;97.45;100817.56;5055076;28;20045;-70
2021/09/23 01:13:13;;;;;;;20.55;11.45;;;;;;;10.57;97.38;100823.84;5055343;28;20144;-71
2021/09/23 01:16:00;;;;;;;18.13;12.00;;;;;;;10.53;97.55;100817.81;5054989;28;20131;-71
2021/09/23 01:18:59;;;;;;;17.77;11.80;;;;;;;10.63;97.64;100831.56;5055151;28;20119;-71
2021/09/23 01:21:31;;;;;;;18.60;12.15;;;;;;;10.55;97.22;100823.06;5054952;28;20131;-71
2021/09/23 01:23:58;;;;;;;17.35;10.48;;;;;;;10.46;97.73;100801.22;5055159;28;20438;-70
2021/09/23 01:26:32;;;;;;;21.35;11.57;;;;;;;10.54;97.88;100800.84;5038408;28;20358;-71
2021/09/23 01:29:09;;;;;;;15.77;11.52;;;;;;;10.57;97.76;100799.84;5055073;28;20053;-70
2021/09/23 01:31:48;;;;;;;20.48;11.73;;;;;;;10.47;97.61;100796.78;5054778;28;20055;-70
2021/09/23 01:34:16;;;;;;;18.58;12.30;;;;;;;10.42;97.69;100801.44;5065830;28;20060;-70
2021/09/23 01:36:44;;;;;;;15.25;11.05;;;;;;;10.42;97.75;100791.63;5034801;28;20057;-71
2021/09/23 01:39:17;;;;;;;17.45;11.80;;;;;;;10.42;97.98;100790.75;5034101;28;20127;-71
2021/09/23 01:41:44;;;;;;;20.45;11.73;;;;;;;10.38;97.57;100789.16;5051471;28;20049;-71
2021/09/23 01:44:11;;;;;;;19.90;12.52;;;;;;;10.38;97.79;100790.03;5051326;28;20482;-70
2021/09/23 01:46:38;;;;;;;18.05;11.65;;;;;;;10.37;98.55;100777.66;5018476;28;20048;-71
2021/09/23 01:49:23;;;;;;;15.35;10.40;;;;;;;10.38;98.30;100763.38;5034493;28;20049;-73
2021/09/23 01:51:51;;;;;;;20.25;11.98;;;;;;;10.49;98.64;100769.97;5038199;28;20045;-71
2021/09/23 01:54:20;;;;;;;22.25;13.55;;;;;;;10.53;98.71;100772.44;5054799;28;20103;-70
2021/09/23 01:56:53;;;;;;;24.77;14.18;;;;;;;10.59;98.92;100776.59;5054545;28;20049;-70
2021/09/23 01:59:23;;;;;;;21.25;14.23;;;;;;;10.67;98.75;100774.38;5054419;28;20505;-71
2021/09/23 02:01:54;;;;;;;21.63;14.18;;;;;;;10.68;98.33;100770.75;5055133;28;20045;-71
2021/09/23 02:04:21;;;;;;;22.73;14.00;;;;;;;10.75;98.72;100767.78;5054425;28;20048;-71
2021/09/23 02:06:48;;;;;;;20.23;13.07;;;;;;;10.82;98.22;100766.50;5054137;28;20041;-70
2021/09/23 02:09:15;;;;;;;25.25;13.35;;;;;;;10.88;98.31;100747.50;5054367;28;20045;-71
2021/09/23 02:11:43;;;;;;;15.82;12.57;;;;;;;10.97;98.61;100741.69;5054136;28;20061;-70
2021/09/23 02:14:10;;;;;;;17.90;13.10;;;;;;;10.99;98.18;100729.09;5055544;28;20041;-70
2021/09/23 02:16:37;;;;;;;17.55;12.25;;;;;;;11.06;97.96;100726.09;5054012;28;20045;-70
2021/09/23 02:19:22;;;;;;;20.20;12.68;;;;;;;11.11;97.87;100724.06;5054497;28;20076;-70
2021/09/23 02:21:49;;;;;;;20.40;11.55;;;;;;;11.07;98.00;100719.81;5037218;28;20049;-70
2021/09/23 02:24:17;;;;;;;14.38;11.20;;;;;;;11.08;98.13;100708.19;5053883;28;20102;-70
2021/09/23 02:26:44;;;;;;;14.70;10.75;;;;;;;11.08;98.09;100711.72;5037471;28;20053;-70
2021/09/23 02:29:11;;;;;;;16.50;10.60;;;;;;;11.16;97.77;100721.97;5053932;28;20048;-71
2021/09/23 02:31:38;;;;;;;14.93;9.93;;;;;;;11.16;97.92;100727.31;5053703;28;20080;-70
2021/09/23 02:34:04;;;;;;;17.88;11.38;;;;;;;11.25;97.19;100724.16;5050347;28;20049;-70
2021/09/23 02:36:31;;;;;;;17.20;11.45;;;;;;;11.24;96.84;100727.75;5033655;28;20084;-71
2021/09/23 02:38:58;;;;;;;15.35;10.90;;;;;;;11.26;96.79;100722.34;5033854;28;20037;-71
2021/09/23 02:41:28;;;;;;;13.13;10.30;;;;;;;11.21;96.61;100719.91;5050418;28;20391;-71
2021/09/23 02:43:55;;;;;;;18.17;10.98;;;;;;;11.24;96.57;100724.25;5050407;28;20049;-71
2021/09/23 02:46:22;;;;;;;13.88;9.95;;;;;;;11.22;96.35;100728.81;5050128;28;20053;-70
2021/09/23 02:48:49;;;;;;;16.30;10.85;;;;;;;11.14;96.63;100729.22;5033681;28;20076;-70
2021/09/23 02:51:17;;;;;;;14.75;10.48;;;;;;;11.15;96.44;100728.25;5045150;28;20067;-70
2021/09/23 02:53:45;;;;;;;14.98;9.52;;;;;;;11.07;97.09;100723.31;5033626;28;20054;-70
2021/09/23 02:56:12;;;;;;;12.43;8.85;;;;;;;11.10;96.06;100720.50;5033612;28;20354;-70
2021/09/23 02:58:39;;;;;;;14.25;8.85;;;;;;;11.04;96.06;100706.59;5045426;28;20045;-70
2021/09/23 03:01:06;;;;;;;11.90;8.23;;;;;;;11.12;95.80;100712.41;5049739;28;20052;-70
2021/09/23 03:03:33;;;;;;;15.20;8.57;;;;;;;11.07;95.91;100712.66;5056579;28;20080;-70
2021/09/23 03:06:00;;;;;;;13.55;8.55;;;;;;;11.06;96.05;100715.41;5052687;28;20412;-70
2021/09/23 03:08:27;;;;;;;18.83;8.13;;;;;;;11.07;95.81;100717.13;5048037;28;20053;-71
2021/09/23 03:10:53;;;;;;;11.30;8.13;;;;;;;10.99;95.88;100714.88;5051748;28;20068;-70
2021/09/23 03:13:20;;;;;;;10.43;7.45;;;;;;;11.02;95.97;100716.53;5033431;28;20061;-70
2021/09/23 03:15:48;;;;;;;13.65;8.02;;;;;;;11.03;95.91;100720.91;5043533;28;20136;-70
2021/09/23 03:18:15;;;;;;;9.70;7.40;;;;;;;10.99;96.22;100721.09;5034517;28;20038;-70
2021/09/23 03:20:44;;;;;;;11.73;8.38;;;;;;;10.94;96.28;100709.78;5049940;28;20048;-70
2021/09/23 03:23:11;;;;;;;13.57;8.07;;;;;;;10.94;96.20;100690.22;5033303;28;20057;-70
2021/09/23 03:25:38;;;;;;;15.07;8.82;;;;;;;10.96;96.30;100689.19;5051196;28;20139;-70
2021/09/23 03:28:06;;;;;;;10.98;8.20;;;;;;;10.89;96.14;100676.28;5053529;28;20097;-70
2021/09/23 03:30:34;;;;;;;10.93;7.95;;;;;;;10.84;96.18;100688.06;5053470;28;20065;-70
2021/09/23 03:33:03;;;;;;;12.52;8.27;;;;;;;10.86;96.23;100679.97;5054282;28;20086;-70
2021/09/23 03:35:30;;;;;;;12.60;8.68;;;;;;;10.85;95.70;100679.09;5053037;28;20057;-70
2021/09/23 03:37:58;;;;;;;11.88;8.05;;;;;;;10.94;95.43;100684.88;5054222;28;20048;-70
2021/09/23 03:40:26;;;;;;;13.75;8.15;;;;;;;10.90;95.32;100676.16;5054357;28;20453;-70
2021/09/23 03:42:53;;;;;;;11.65;7.75;;;;;;;10.93;94.96;100684.03;5053161;28;20052;-70
2021/09/23 03:45:22;;;;;;;9.10;7.18;;;;;;;10.90;94.69;100662.81;5054438;28;20048;-70
2021/09/23 03:47:50;;;;;;;8.70;6.70;;;;;;;10.90;94.92;100672.66;5053007;28;20060;-70
2021/09/23 03:50:17;;;;;;;12.65;7.03;;;;;;;10.95;94.57;100670.59;5065067;28;20068;-70
2021/09/23 03:52:46;;;;;;;10.40;6.35;;;;;;;10.89;94.56;100658.41;5052874;28;20045;-71
2021/09/23 03:55:15;;;;;;;9.60;7.05;;;;;;;10.95;94.43;100659.91;5053123;28;20045;-71
2021/09/23 03:57:44;;;;;;;9.93;7.00;;;;;;;10.92;94.31;100665.41;5052997;28;20501;-71
2021/09/23 04:00:12;;;;;;;9.50;5.70;;;;;;;10.97;93.93;100658.00;5048223;28;20517;-71
2021/09/23 04:02:42;;;;;;;8.93;6.30;;;;;;;10.91;94.39;100663.69;5056383;28;20120;-71
2021/09/23 04:05:09;;;;;;;10.57;5.72;;;;;;;10.87;94.70;100657.66;5053212;28;20079;-70
2021/09/23 04:07:36;;;;;;;9.35;6.57;;;;;;;10.80;95.09;100658.94;5041826;28;20052;-71
2021/09/23 04:10:05;;;;;;;8.23;6.03;;;;;;;10.75;95.11;100652.97;5056544;28;20175;-70
2021/09/23 04:12:32;;;;;;;9.55;5.65;;;;;;;10.70;95.40;100655.91;5026972;28;20045;-71
2021/09/23 04:14:59;;;;;;;11.32;6.93;;;;;;;10.70;95.40;100662.13;5037789;28;20045;-71
2021/09/23 04:17:26;;;;;;;8.05;6.03;;;;;;;10.68;95.57;100650.63;5056130;28;20468;-71
2021/09/23 04:19:53;;;;;;;9.60;5.82;;;;;;;10.68;95.36;100661.31;5056326;28;20048;-71
2021/09/23 04:22:21;;;;;;;7.82;6.25;;;;;;;10.67;95.37;100650.72;5056233;28;20052;-71
2021/09/23 04:24:48;;;;;;;9.40;5.75;;;;;;;10.65;95.38;100645.47;5056543;28;20045;-71
2021/09/23 04:27:15;;;;;;;9.48;5.50;;;;;;;10.56;95.83;100644.16;5056096;28;20057;-70
2021/09/23 04:29:46;;;;;;;8.05;5.43;;;;;;;10.69;95.09;100644.34;5057138;28;20315;-70
2021/09/23 04:32:14;;;;;;;7.47;5.75;;;;;;;10.68;95.50;100657.78;5056224;28;20128;-71
2021/09/23 04:34:41;;;;;;;9.95;5.85;;;;;;;10.67;95.57;100658.75;5055910;28;20056;-71
2021/09/23 04:37:12;;;;;;;8.82;6.38;;;;;;;10.63;95.58;100652.72;5037659;28;20053;-71
2021/09/23 04:39:38;;;;;;;11.00;5.80;;;;;;;10.71;95.36;100663.84;5039358;28;20033;-71
2021/09/23 04:42:06;;;;;;;10.02;5.68;;;;;;;10.65;95.97;100664.16;5055772;28;20327;-71
2021/09/23 04:44:36;;;;;;;;;;;;;;;10.74;95.44;100657.47;5057156;28;20058;-71
2021/09/23 04:47:04;;;;;;;6.75;5.55;;;;;;;10.68;95.60;100653.31;5051889;28;20345;-71
2021/09/23 04:49:32;;;;;;;8.50;5.78;;;;;;;10.78;95.04;100656.34;5036139;28;20072;-70
2021/09/23 04:52:01;;;;;;;10.73;5.23;;;;;;;10.83;94.76;100650.75;5051891;28;20052;-71
2021/09/23 04:54:28;;;;;;;9.82;5.45;;;;;;;10.83;94.84;100653.41;5039438;28;20102;-71
2021/09/23 04:56:55;;;;;;;6.82;5.70;;;;;;;10.78;94.33;100636.81;5055428;28;20075;-71
2021/09/23 04:59:22;;;;;;;8.48;6.05;;;;;;;10.96;93.81;100651.81;5055197;28;20053;-71
2021/09/23 05:01:49;;;;;;;6.07;5.20;;;;;;;11.00;93.72;100648.03;5055827;28;20123;-71
2021/09/23 05:04:16;;;;;;;7.40;5.25;;;;;;;11.00;93.85;100642.69;5071407;28;20072;-71
2021/09/23 05:06:43;;;;;;;10.05;4.82;;;;;;;11.07;93.16;100658.38;5055025;28;20049;-71
2021/09/23 05:09:10;;;;;;;6.70;4.75;;;;;;;11.10;93.04;100648.38;5061886;28;20064;-71
2021/09/23 05:11:38;;;;;;;6.13;4.30;;;;;;;11.09;93.01;100643.13;5040614;28;20049;-71
2021/09/23 05:14:05;;;;;;;11.13;4.72;;;;;;;11.07;92.82;100653.88;5055046;28;20063;-71
2021/09/23 05:16:32;;;;;;;8.48;5.53;;;;;;;11.11;92.79;100666.13;5055735;28;20056;-70
2021/09/23 05:19:00;;;;;;;7.40;5.00;;;;;;;11.18;92.27;100664.00;5055590;28;20044;-71
2021/09/23 05:21:27;;;;;;;7.78;5.00;;;;;;;11.20;92.29;100675.44;5055911;28;20037;-71
2021/09/23 05:23:54;;;;;;;7.03;5.35;;;;;;;11.21;92.36;100677.16;5054865;28;20048;-70
2021/09/23 05:26:21;;;;;;;9.70;5.53;;;;;;;11.21;92.40;100687.84;5054127;28;20058;-71
2021/09/23 05:28:49;;;;;;;5.80;5.07;;;;;;;11.22;92.26;100689.56;5066704;28;20083;-70
2021/09/23 05:31:17;;;;;;;8.23;5.93;;;;;;;11.21;92.32;100687.84;5043660;28;20139;-71
2021/09/23 05:33:44;;;;;;;7.85;5.20;;;;;;;11.20;92.53;100690.59;5037701;28;20052;-71
2021/09/23 05:36:12;;;;;;;8.00;5.30;;;;;;;11.20;92.63;100695.94;5053131;28;20057;-70
2021/09/23 05:38:39;;;;;;;10.23;4.85;;;;;;;11.18;92.94;100698.72;5055805;28;20040;-70
2021/09/23 05:41:06;;;;;;;9.15;5.30;;;;;;;11.17;92.88;100691.63;5055254;28;20045;-71
2021/09/23 05:43:33;;;;;;;8.32;5.20;;;;;;;11.18;92.85;100687.16;5052086;28;20602;-71
2021/09/23 05:46:00;;;;;;;11.10;5.53;;;;;;;11.14;92.98;100686.47;5054236;28;20445;-71
2021/09/23 05:48:27;;;;;;;10.30;5.32;;;;;;;11.17;92.88;100685.44;5052975;28;20468;-73
2021/09/23 05:50:55;;;;;;;8.98;5.05;;;;;;;11.15;92.97;100682.84;5050649;28;20403;-72
2021/09/23 05:53:22;;;;;;;7.90;5.28;;;;;;;11.14;93.20;100678.47;5054700;28;20434;-73
2021/09/23 05:55:49;;;;;;;8.00;5.15;;;;;;;11.17;93.08;100675.59;5036797;28;20457;-73
2021/09/23 05:58:16;;;;;;;9.18;5.45;;;;;;;11.19;93.04;100678.19;5055167;28;20389;-73
2021/09/23 06:00:43;;;;;;;7.05;5.47;;;;;;;11.23;92.80;100669.06;5045790;28;20033;-71
2021/09/23 06:03:11;;;;;;;8.23;4.90;;;;;;;11.27;92.65;100666.16;5046425;28;20049;-73
2021/09/23 06:05:38;;;;;;;11.65;4.70;;;;;;;11.25;92.66;100649.34;5050716;28;20045;-71
2021/09/23 06:08:05;;;;;;;7.80;4.72;;;;;;;11.30;92.99;100648.19;5055140;28;20140;-71
2021/09/23 06:10:32;;;;;;;8.15;4.97;;;;;;;11.32;92.82;100640.97;5054876;28;20033;-77
2021/09/23 06:12:58;;;;;;;7.50;5.18;;;;;;;11.34;92.98;100641.75;5048665;28;20113;-71
2021/09/23 06:15:25;;;;;;;9.85;5.50;;;;;;;11.40;92.69;100644.91;5037042;28;20093;-75
2021/09/23 06:17:52;;;;;;;8.50;4.20;;;;;;;11.45;92.08;100630.44;5035728;28;20139;-71
2021/09/23 06:20:20;;;;;;;6.75;4.88;;;;;;;11.48;92.38;100628.47;5047060;28;20048;-70
2021/09/23 06:22:52;;;;;;;6.65;4.80;;;;;;;11.48;92.88;100630.25;5052807;28;20057;-70
2021/09/23 06:25:19;;;;;;;6.70;4.80;;;;;;;11.45;92.78;100623.31;5053324;28;20041;-70
2021/09/23 06:27:46;;;;;;;9.82;4.90;;;;;;;11.45;92.81;100615.28;5054152;28;20045;-70
2021/09/23 06:30:17;;;;;;;;;;;;;;;11.60;91.46;100613.50;5053647;28;20052;-70
2021/09/23 06:32:44;;;;;;;7.70;4.88;;;;;;;11.70;91.62;100613.00;5050357;28;19928;-71
2021/09/23 06:35:13;;;;;;;6.65;4.30;;;;;;;11.80;91.36;100620.38;5044665;28;20045;-70
2021/09/23 06:37:46;;;;;;;8.02;4.68;;;;;;;11.89;90.09;100618.09;5031208;28;20106;-71
2021/09/23 06:40:14;;;;;;;6.30;4.85;;;;;;;11.92;90.26;100612.56;5047679;28;20045;-71
2021/09/23 06:42:41;;;;;;;7.75;5.07;;;;;;;11.93;89.95;100614.31;5050907;28;20085;-73
2021/09/23 06:45:09;;;;;;;5.65;4.47;;;;;;;12.07;89.09;100625.06;5054669;28;20437;-71
2021/09/23 06:47:36;;;;;;;9.13;4.53;;;;;;;12.15;88.69;100621.06;5050482;28;20119;-70
2021/09/23 06:50:04;;;;;;;6.80;5.07;;;;;;;12.21;88.21;100623.38;5036696;28;20053;-72
2021/09/23 06:52:31;;;;;;;5.13;4.38;;;;;;;12.25;88.65;100616.03;5036838;28;20091;-71
2021/09/23 06:55:00;;;;;;;6.78;4.75;;;;;;;12.27;88.91;100617.66;5050960;28;20103;-72
2021/09/23 06:57:27;;;;;;;8.52;4.70;;;;;;;12.31;88.89;100624.53;5047915;28;20312;-72
2021/09/23 07:00:13;;;;;;;10.68;4.55;;;;;;;12.38;88.27;100618.81;5039083;28;20055;-70
2021/09/23 07:03:03;;;;;;;7.37;4.57;;;;;;;12.41;87.92;100624.00;5036800;28;20328;-69
2021/09/23 07:05:35;;;;;;;7.10;4.97;;;;;;;12.45;88.10;100626.38;5063732;28;20366;-70
2021/09/23 07:08:03;;;;;;;8.45;5.00;;;;;;;12.47;88.40;100621.78;5052842;28;20044;-71
2021/09/23 07:10:29;;;;;;;6.72;4.75;;;;;;;12.52;87.86;100616.13;5069407;28;20052;-68
2021/09/23 07:12:56;;;;;;;9.27;4.88;;;;;;;12.59;88.16;100619.31;5052755;28;20044;-70
2021/09/23 07:15:23;;;;;;;9.07;4.80;;;;;;;12.61;87.95;100620.06;5046616;28;20114;-70
2021/09/23 07:17:50;;;;;;;6.28;4.50;;;;;;;12.64;88.58;100625.22;5051553;28;20049;-71
2021/09/23 07:20:16;;;;;;;7.57;4.40;;;;;;;12.66;88.40;100620.66;5050933;28;20124;-73
2021/09/23 07:22:43;;;;;;;6.95;4.55;;;;;;;12.76;87.66;100623.59;5054335;28;20055;-71
2021/09/23 07:25:11;;;;;;;7.18;5.13;;;;;;;12.84;87.56;100615.94;5051750;28;20453;-71
2021/09/23 07:27:38;;;;;;;7.07;4.78;;;;;;;12.86;88.00;100614.00;5052500;28;20316;-70
2021/09/23 07:30:06;;;;;;;8.82;4.82;;;;;;;12.97;86.88;100613.31;5049994;28;20045;-71
2021/09/23 07:32:33;;;;;;;7.78;5.03;;;;;;;13.03;86.38;100609.41;5052832;28;20045;-71
2021/09/23 07:35:00;;;;;;;7.95;5.03;;;;;;;13.10;86.98;100605.38;5053846;28;20456;-69
2021/09/23 07:37:27;;;;;;;10.80;5.82;;;;;;;13.15;86.87;100605.94;5055557;28;20429;-76
2021/09/23 07:39:54;;;;;;;8.70;4.88;;;;;;;13.21;87.06;100603.81;5048710;28;20071;-74
2021/09/23 07:42:21;;;;;;;7.13;4.70;;;;;;;13.26;85.96;100593.66;5056795;28;20132;-72
2021/09/23 07:44:49;;;;;;;11.10;5.32;;;;;;;13.41;85.52;100607.88;5056301;28;20440;-74
2021/09/23 07:47:17;;;;;;;8.18;5.43;;;;;;;13.44;84.85;100611.22;5043350;28;20119;-71
2021/09/23 07:49:44;;;;;;;11.00;4.80;;;;;;;13.49;84.92;100605.56;5053658;28;20045;-70
2021/09/23 07:52:10;;;;;;;9.23;5.03;;;;;;;13.59;83.90;100605.81;5053448;28;20056;-75
2021/09/23 07:54:37;;;;;;;10.13;4.97;;;;;;;13.65;84.02;100604.53;5036953;28;20049;-76
2021/09/23 07:57:04;;;;;;;7.72;4.78;;;;;;;13.70;83.45;100597.06;5052886;28;20506;-74
2021/09/23 07:59:31;;;;;;;13.07;5.43;;;;;;;13.77;81.95;100609.09;5053220;28;20477;-76
2021/09/23 08:01:58;;;;;;;11.63;5.10;;;;;;;13.83;80.93;100608.69;5020363;28;20033;-71
2021/09/23 08:04:26;;;;;;;9.10;5.43;;;;;;;13.88;80.81;100597.63;5036556;28;20127;-73
2021/09/23 08:06:54;;;;;;;7.97;5.70;;;;;;;13.95;79.87;100601.59;5036567;28;20481;-73
2021/09/23 08:09:21;;;;;;;7.72;5.38;;;;;;;13.97;80.38;100610.44;5036649;28;20056;-74
2021/09/23 08:11:50;;;;;;;11.65;6.07;;;;;;;14.01;80.79;100608.41;5036417;28;20049;-72
2021/09/23 08:14:21;;;;;;;9.43;5.45;;;;;;;14.05;79.90;100598.31;5034470;28;20343;-73
2021/09/23 08:17:17;;;;;;;10.70;5.53;;;;;;;14.03;80.54;100605.59;5034057;28;20049;-73
2021/09/23 08:20:04;;;;;;;10.80;6.30;;;;;;;14.11;79.76;100595.22;5034354;28;20500;-74
2021/09/23 08:22:36;;;;;;;11.13;6.03;;;;;;;14.23;78.87;100594.34;5049800;28;20140;-73
2021/09/23 08:25:05;;;;;;;10.68;6.15;;;;;;;14.27;78.12;100589.59;5032788;28;20053;-74
2021/09/23 08:27:34;;;;;;;11.07;5.88;;;;;;;14.35;78.21;100584.59;5049496;28;20541;-74
2021/09/23 08:30:01;;;;;;;11.73;5.88;;;;;;;14.39;77.53;100583.38;5034201;28;20048;-74
2021/09/23 08:32:29;;;;;;;11.02;6.03;;;;;;;14.50;77.22;100568.34;5034899;28;20046;-72
2021/09/23 08:34:56;;;;;;;14.25;7.00;;;;;;;14.53;77.04;100563.63;5046636;28;20140;-73
2021/09/23 08:37:23;;;;;;;12.60;6.43;;;;;;;14.62;76.84;100558.53;5055852;28;20464;-73
2021/09/23 08:39:51;;;;;;;12.65;6.53;;;;;;;14.69;76.53;100551.75;5072307;28;20048;-75
2021/09/23 08:42:19;;;;;;;18.00;7.20;;;;;;;14.83;75.83;100547.25;5039391;28;20469;-72
2021/09/23 08:44:48;;;;;;;13.80;7.15;;;;;;;14.85;75.94;100539.91;5055574;28;20063;-73
2021/09/23 08:47:16;;;;;;;11.25;6.55;;;;;;;14.95;76.22;100535.59;5055658;28;20081;-73
2021/09/23 08:49:44;;;;;;;11.48;6.25;;;;;;;14.96;75.56;100514.94;5055640;28;20095;-74
2021/09/23 08:52:11;;;;;;;10.90;5.93;;;;;;;15.16;74.39;100533.13;5039067;28;20049;-73
2021/09/23 08:54:38;;;;;;;18.52;6.28;;;;;;;15.18;75.50;100527.66;5055519;28;20052;-73
2021/09/23 08:57:06;;;;;;;10.35;6.68;;;;;;;15.25;74.35;100533.44;5056667;28;20055;-75
2021/09/23 08:59:34;;;;;;;16.50;6.07;;;;;;;15.32;74.36;100535.53;5039075;28;20049;-74
2021/09/23 09:02:28;;;;;;;10.38;5.90;;;;;;;15.34;73.88;100530.03;5048611;28;20099;-74
2021/09/23 09:05:25;;;;;;;9.10;5.75;;;;;;;15.47;73.59;100516.50;5031567;28;20414;-73
2021/09/23 09:08:30;;;;;;;9.15;6.03;;;;;;;15.48;73.13;100515.56;5014554;28;20046;-72
2021/09/23 09:11:05;;;;;;;14.48;6.78;;;;;;;15.43;72.94;100517.75;5033625;28;20060;-74
2021/09/23 09:13:39;;;;;;;12.63;6.22;;;;;;;15.47;73.16;100508.44;5036000;28;20046;-72
2021/09/23 09:16:14;;;;;;;13.85;7.57;;;;;;;15.49;73.89;100503.81;5035149;28;20049;-72
2021/09/23 09:18:49;;;;;;;12.38;5.70;;;;;;;15.52;73.59;100487.44;5035359;28;20053;-74
2021/09/23 09:21:22;;;;;;;18.05;6.53;;;;;;;15.72;73.26;100506.56;5036204;28;20043;-73
2021/09/23 09:24:01;;;;;;;15.27;6.25;;;;;;;15.81;72.96;100503.19;5035350;28;20350;-72
2021/09/23 09:26:36;;;;;;;9.52;6.40;;;;;;;15.96;72.06;100503.00;5035143;28;20430;-73
2021/09/23 09:29:11;;;;;;;14.10;6.35;;;;;;;16.06;72.03;100509.34;5035007;28;20066;-73
2021/09/23 09:31:48;;;;;;;10.52;6.15;;;;;;;16.09;70.86;100498.34;5035060;28;20358;-75
2021/09/23 09:34:19;;;;;;;16.52;6.50;;;;;;;16.21;71.56;100491.13;5039996;28;20045;-74
2021/09/23 09:36:55;;;;;;;15.43;6.15;;;;;;;16.28;71.27;100497.75;5054704;28;20059;-75
2021/09/23 09:39:23;;;;;;;10.65;6.45;;;;;;;16.35;71.40;100490.00;5054839;28;20131;-75
2021/09/23 09:41:53;;;;;;;8.68;5.80;;;;;;;16.46;71.15;100486.47;5022348;28;20568;-74
2021/09/23 09:44:21;;;;;;;11.57;6.40;;;;;;;16.52;70.79;100495.88;5054584;28;20072;-74
2021/09/23 09:46:53;;;;;;;11.30;6.18;;;;;;;16.50;70.01;100493.31;5054625;28;20052;-73
2021/09/23 09:49:24;;;;;;;12.68;6.40;;;;;;;16.63;70.07;100500.41;5054583;28;20460;-73
2021/09/23 09:51:58;;;;;;;16.17;7.63;;;;;;;16.78;68.89;100498.31;5054545;28;20047;-73
2021/09/23 09:54:32;;;;;;;16.38;6.70;;;;;;;16.81;69.43;100496.22;5053718;28;20053;-74
2021/09/23 09:57:04;;;;;;;11.32;6.60;;;;;;;17.02;69.94;100494.56;5054093;28;20053;-75
2021/09/23 09:59:35;;;;;;;16.10;6.40;;;;;;;17.10;67.79;100486.69;5070355;28;20103;-74
2021/09/23 10:02:03;;;;;;;10.23;6.45;;;;;;;17.26;68.41;100488.13;5067633;28;20069;-73
2021/09/23 10:04:33;;;;;;;12.55;6.95;;;;;;;17.22;67.30;100488.38;5053860;28;20468;-74
2021/09/23 10:07:04;;;;;;;12.32;6.90;;;;;;;17.30;66.86;100495.81;5037368;28;20069;-72
2021/09/23 10:09:38;;;;;;;11.93;6.40;;;;;;;17.34;66.79;100491.03;5051212;28;20049;-73
2021/09/23 10:12:06;;;;;;;16.80;6.82;;;;;;;17.41;68.05;100484.13;5053909;28;20433;-72
2021/09/23 10:14:36;;;;;;;13.65;6.38;;;;;;;17.51;67.76;100482.38;5049506;28;20072;-74
2021/09/23 10:17:04;;;;;;;15.27;6.25;;;;;;;17.62;67.30;100480.56;5037979;28;20102;-75
2021/09/23 10:19:34;;;;;;;15.88;6.88;;;;;;;17.74;66.76;100474.13;5054091;28;20045;-75
2021/09/23 10:22:02;;;;;;;11.85;6.13;;;;;;;17.84;65.95;100460.69;5053739;28;20335;-75
2021/09/23 10:24:34;;;;;;;15.50;6.57;;;;;;;18.01;66.83;100463.72;5037968;28;20048;-74
2021/09/23 10:27:55;;;;;;;13.38;6.13;;;;;;;18.19;64.83;100458.56;5037662;28;20315;-74
2021/09/23 10:29:51;;;;;;;12.43;6.50;;;;;;;18.28;63.76;100459.63;5054003;28;20084;-74
2021/09/23 10:32:19;;;;;;;10.90;5.22;;;;;;;18.44;64.04;100434.78;5053512;28;20068;-73
2021/09/23 10:34:50;;;;;;;14.30;6.75;;;;;;;18.58;61.18;100444.34;5050295;28;20107;-74
2021/09/23 10:37:18;;;;;;;12.38;6.18;;;;;;;18.64;61.02;100442.94;5045768;28;20071;-77
2021/09/23 10:39:47;;;;;;;15.55;6.47;;;;;;;18.52;60.43;100437.63;5052807;28;20056;-70
2021/09/23 10:42:20;;;;;;;9.35;5.95;;;;;;;18.58;60.46;100437.06;5036167;28;20047;-66
2021/09/23 10:44:49;;;;;;;14.15;6.90;;;;;;;18.76;60.07;100430.13;5052962;28;20057;-73
2021/09/23 10:47:34;;;;;;;12.63;6.07;;;;;;;18.78;59.10;100442.53;5052500;28;20450;-70
2021/09/23 10:50:05;;;;;;;12.95;6.47;;;;;;;18.98;59.98;100447.94;5052730;28;20441;-72
2021/09/23 10:52:34;;;;;;;10.25;6.65;;;;;;;18.87;59.08;100425.44;5052374;28;20045;-71
2021/09/23 10:55:04;;;;;;;8.88;5.95;;;;;;;19.00;58.43;100432.41;5052423;28;20059;-71
2021/09/23 10:57:32;;;;;;;13.27;5.97;;;;;;;19.10;59.21;100427.91;5053793;28;20055;-70
2021/09/23 11:00:04;;;;;;;9.93;6.50;;;;;;;19.13;58.06;100429.47;5036095;28;20142;-71
2021/09/23 11:02:32;;;;;;;8.40;6.95;;;;;;;19.29;57.24;100431.59;5049215;28;20052;-72
2021/09/23 11:05:09;;;;;;;15.07;6.90;;;;;;;19.33;56.65;100422.19;5052454;28;20049;-72
2021/09/23 11:07:41;;;;;;;11.68;6.85;;;;;;;19.39;57.06;100421.59;5069267;28;20349;-71
2021/09/23 11:10:20;;;;;;;10.75;6.05;;;;;;;19.61;55.81;100414.13;5052184;28;20434;-71
2021/09/23 11:12:52;;;;;;;13.05;6.53;;;;;;;19.71;54.62;100418.69;5055052;28;20044;-72
2021/09/23 11:15:21;;;;;;;9.68;6.43;;;;;;;19.75;54.18;100412.81;5055930;28;20357;-70
2021/09/23 11:17:50;;;;;;;12.65;6.85;;;;;;;19.85;54.42;100407.38;5056244;28;20044;-70
2021/09/23 11:20:28;;;;;;;9.00;6.65;;;;;;;19.92;54.06;100400.38;5055944;28;20048;-71
2021/09/23 11:23:05;;;;;;;8.80;5.90;;;;;;;20.05;53.83;100394.63;5039424;28;20037;-71
2021/09/23 11:25:40;;;;;;;12.57;6.82;;;;;;;20.12;54.12;100392.19;5054888;28;20055;-72
2021/09/23 11:28:10;;;;;;;10.00;6.63;;;;;;;20.14;54.67;100384.75;5042668;28;20052;-70
2021/09/23 11:30:38;;;;;;;11.13;7.90;;;;;;;20.17;53.79;100394.44;5060735;28;20049;-72